<?xml version="1.0" encoding="UTF-8" standalone="no" ?>
<gpx xmlns="http://www.topografix.com/GPX/1/1" xmlns:xsi="http://www.w3.org/2001/XMLSchema-instance" xsi:schemaLocation="http://www.topografix.com/GPX/1/1 http://www.topografix.com/GPX/1/1/gpx.xsd" version="1.1" creator="VisuGPX - https://www.visugpx.com">
  <metadata>
    <name>ESCAPADE-PILAT-Etape1-Boucles1et 2</name>
  </metadata>
  <trk>
    <name><![CDATA[13156820-Boucle Bonnefond B( cavaliers)]]></name>
    <extensions>
      <line xmlns="http://www.topografix.com/GPX/gpx_style/0/2">
        <color>00FF00</color>
        <width>4</width>
      </line>
    </extensions>
    <trkseg>
      <trkpt lat="45.3815" lon="4.36769">
        <ele>841</ele>
        <time>2021-06-03T14:02:40Z</time>
      </trkpt>
      <trkpt lat="45.38161" lon="4.36799">
        <ele>844</ele>
        <time>2021-06-03T14:02:59Z</time>
      </trkpt>
      <trkpt lat="45.38215" lon="4.36789">
        <ele>840</ele>
        <time>2021-06-03T14:03:43Z</time>
      </trkpt>
      <trkpt lat="45.38263" lon="4.36734">
        <ele>834</ele>
        <time>2021-06-03T14:04:32Z</time>
      </trkpt>
      <trkpt lat="45.38274" lon="4.36692">
        <ele>829</ele>
        <time>2021-06-03T14:04:57Z</time>
      </trkpt>
      <trkpt lat="45.38296" lon="4.3661">
        <ele>822</ele>
        <time>2021-06-03T14:05:47Z</time>
      </trkpt>
      <trkpt lat="45.38347" lon="4.36526">
        <ele>815</ele>
        <time>2021-06-03T14:06:49Z</time>
      </trkpt>
      <trkpt lat="45.38386" lon="4.36534">
        <ele>811</ele>
        <time>2021-06-03T14:07:21Z</time>
      </trkpt>
      <trkpt lat="45.38405" lon="4.36573">
        <ele>810</ele>
        <time>2021-06-03T14:07:47Z</time>
      </trkpt>
      <trkpt lat="45.38423" lon="4.36621">
        <ele>804</ele>
        <time>2021-06-03T14:08:18Z</time>
      </trkpt>
      <trkpt lat="45.3843" lon="4.36684">
        <ele>798</ele>
        <time>2021-06-03T14:08:54Z</time>
      </trkpt>
      <trkpt lat="45.38458" lon="4.36758">
        <ele>786</ele>
        <time>2021-06-03T14:09:41Z</time>
      </trkpt>
      <trkpt lat="45.38465" lon="4.36822">
        <ele>781</ele>
        <time>2021-06-03T14:10:17Z</time>
      </trkpt>
      <trkpt lat="45.38444" lon="4.36867">
        <ele>783</ele>
        <time>2021-06-03T14:10:48Z</time>
      </trkpt>
      <trkpt lat="45.38426" lon="4.36912">
        <ele>785</ele>
        <time>2021-06-03T14:11:17Z</time>
      </trkpt>
      <trkpt lat="45.38468" lon="4.37002">
        <ele>767</ele>
        <time>2021-06-03T14:12:18Z</time>
      </trkpt>
      <trkpt lat="45.38502" lon="4.37089">
        <ele>758</ele>
        <time>2021-06-03T14:13:14Z</time>
      </trkpt>
      <trkpt lat="45.38505" lon="4.37166">
        <ele>748</ele>
        <time>2021-06-03T14:13:57Z</time>
      </trkpt>
      <trkpt lat="45.38495" lon="4.37282">
        <ele>733</ele>
        <time>2021-06-03T14:15:03Z</time>
      </trkpt>
      <trkpt lat="45.38503" lon="4.37328">
        <ele>725</ele>
        <time>2021-06-03T14:15:29Z</time>
      </trkpt>
      <trkpt lat="45.38501" lon="4.37424">
        <ele>706</ele>
        <time>2021-06-03T14:16:23Z</time>
      </trkpt>
      <trkpt lat="45.38465" lon="4.37443">
        <ele>702</ele>
        <time>2021-06-03T14:16:54Z</time>
      </trkpt>
      <trkpt lat="45.38397" lon="4.37423">
        <ele>710</ele>
        <time>2021-06-03T14:17:50Z</time>
      </trkpt>
      <trkpt lat="45.38347" lon="4.3743">
        <ele>710</ele>
        <time>2021-06-03T14:18:30Z</time>
      </trkpt>
      <trkpt lat="45.38465" lon="4.37527">
        <ele>675</ele>
        <time>2021-06-03T14:20:19Z</time>
      </trkpt>
      <trkpt lat="45.38507" lon="4.37559">
        <ele>663</ele>
        <time>2021-06-03T14:20:57Z</time>
      </trkpt>
      <trkpt lat="45.38532" lon="4.37593">
        <ele>655</ele>
        <time>2021-06-03T14:21:25Z</time>
      </trkpt>
      <trkpt lat="45.38496" lon="4.37576">
        <ele>658</ele>
        <time>2021-06-03T14:21:55Z</time>
      </trkpt>
      <trkpt lat="45.38419" lon="4.37573">
        <ele>659</ele>
        <time>2021-06-03T14:22:57Z</time>
      </trkpt>
      <trkpt lat="45.38469" lon="4.37593">
        <ele>657</ele>
        <time>2021-06-03T14:23:38Z</time>
      </trkpt>
      <trkpt lat="45.38453" lon="4.37607">
        <ele>658</ele>
        <time>2021-06-03T14:23:54Z</time>
      </trkpt>
      <trkpt lat="45.38396" lon="4.37602">
        <ele>663</ele>
        <time>2021-06-03T14:24:39Z</time>
      </trkpt>
      <trkpt lat="45.38376" lon="4.37624">
        <ele>669</ele>
        <time>2021-06-03T14:24:59Z</time>
      </trkpt>
      <trkpt lat="45.3836" lon="4.37709">
        <ele>675</ele>
        <time>2021-06-03T14:25:49Z</time>
      </trkpt>
      <trkpt lat="45.38357" lon="4.37823">
        <ele>680</ele>
        <time>2021-06-03T14:26:53Z</time>
      </trkpt>
      <trkpt lat="45.38328" lon="4.37881">
        <ele>681</ele>
        <time>2021-06-03T14:27:33Z</time>
      </trkpt>
      <trkpt lat="45.38276" lon="4.3792">
        <ele>685</ele>
        <time>2021-06-03T14:28:20Z</time>
      </trkpt>
      <trkpt lat="45.38227" lon="4.37972">
        <ele>694</ele>
        <time>2021-06-03T14:29:09Z</time>
      </trkpt>
      <trkpt lat="45.38179" lon="4.38004">
        <ele>695</ele>
        <time>2021-06-03T14:29:52Z</time>
      </trkpt>
      <trkpt lat="45.38114" lon="4.38034">
        <ele>702</ele>
        <time>2021-06-03T14:30:46Z</time>
      </trkpt>
      <trkpt lat="45.38065" lon="4.38077">
        <ele>706</ele>
        <time>2021-06-03T14:31:32Z</time>
      </trkpt>
      <trkpt lat="45.38041" lon="4.38116">
        <ele>715</ele>
        <time>2021-06-03T14:32:02Z</time>
      </trkpt>
      <trkpt lat="45.3808" lon="4.38195">
        <ele>709</ele>
        <time>2021-06-03T14:32:56Z</time>
      </trkpt>
      <trkpt lat="45.38075" lon="4.38284">
        <ele>714</ele>
        <time>2021-06-03T14:33:46Z</time>
      </trkpt>
      <trkpt lat="45.38074" lon="4.38377">
        <ele>715</ele>
        <time>2021-06-03T14:34:38Z</time>
      </trkpt>
      <trkpt lat="45.38069" lon="4.38442">
        <ele>717</ele>
        <time>2021-06-03T14:35:15Z</time>
      </trkpt>
      <trkpt lat="45.38085" lon="4.38437">
        <ele>714</ele>
        <time>2021-06-03T14:35:28Z</time>
      </trkpt>
      <trkpt lat="45.38093" lon="4.38367">
        <ele>717</ele>
        <time>2021-06-03T14:36:08Z</time>
      </trkpt>
      <trkpt lat="45.38101" lon="4.38329">
        <ele>721</ele>
        <time>2021-06-03T14:36:30Z</time>
      </trkpt>
      <trkpt lat="45.38098" lon="4.38292">
        <ele>719</ele>
        <time>2021-06-03T14:36:51Z</time>
      </trkpt>
      <trkpt lat="45.38113" lon="4.38254">
        <ele>725</ele>
        <time>2021-06-03T14:37:16Z</time>
      </trkpt>
      <trkpt lat="45.38123" lon="4.38214">
        <ele>726</ele>
        <time>2021-06-03T14:37:40Z</time>
      </trkpt>
      <trkpt lat="45.38118" lon="4.38126">
        <ele>714</ele>
        <time>2021-06-03T14:38:29Z</time>
      </trkpt>
      <trkpt lat="45.38184" lon="4.38086">
        <ele>721</ele>
        <time>2021-06-03T14:39:27Z</time>
      </trkpt>
      <trkpt lat="45.38254" lon="4.38073">
        <ele>732</ele>
        <time>2021-06-03T14:40:23Z</time>
      </trkpt>
      <trkpt lat="45.38312" lon="4.38022">
        <ele>725</ele>
        <time>2021-06-03T14:41:18Z</time>
      </trkpt>
      <trkpt lat="45.38352" lon="4.38006">
        <ele>730</ele>
        <time>2021-06-03T14:41:51Z</time>
      </trkpt>
      <trkpt lat="45.38403" lon="4.37969">
        <ele>736</ele>
        <time>2021-06-03T14:42:37Z</time>
      </trkpt>
      <trkpt lat="45.38439" lon="4.37902">
        <ele>726</ele>
        <time>2021-06-03T14:43:25Z</time>
      </trkpt>
      <trkpt lat="45.38462" lon="4.37853">
        <ele>718</ele>
        <time>2021-06-03T14:43:58Z</time>
      </trkpt>
      <trkpt lat="45.3849" lon="4.37849">
        <ele>725</ele>
        <time>2021-06-03T14:44:20Z</time>
      </trkpt>
      <trkpt lat="45.38527" lon="4.37873">
        <ele>736</ele>
        <time>2021-06-03T14:44:53Z</time>
      </trkpt>
      <trkpt lat="45.38582" lon="4.3792">
        <ele>753</ele>
        <time>2021-06-03T14:45:44Z</time>
      </trkpt>
      <trkpt lat="45.3862" lon="4.37879">
        <ele>745</ele>
        <time>2021-06-03T14:46:22Z</time>
      </trkpt>
      <trkpt lat="45.38681" lon="4.3784">
        <ele>746</ele>
        <time>2021-06-03T14:47:16Z</time>
      </trkpt>
      <trkpt lat="45.3875" lon="4.37763">
        <ele>746</ele>
        <time>2021-06-03T14:48:26Z</time>
      </trkpt>
      <trkpt lat="45.38781" lon="4.37731">
        <ele>744</ele>
        <time>2021-06-03T14:48:57Z</time>
      </trkpt>
      <trkpt lat="45.38812" lon="4.3771">
        <ele>745</ele>
        <time>2021-06-03T14:49:24Z</time>
      </trkpt>
      <trkpt lat="45.38845" lon="4.37705">
        <ele>751</ele>
        <time>2021-06-03T14:49:51Z</time>
      </trkpt>
      <trkpt lat="45.38885" lon="4.37705">
        <ele>757</ele>
        <time>2021-06-03T14:50:23Z</time>
      </trkpt>
      <trkpt lat="45.38905" lon="4.37708">
        <ele>761</ele>
        <time>2021-06-03T14:50:39Z</time>
      </trkpt>
      <trkpt lat="45.38937" lon="4.37611">
        <ele>756</ele>
        <time>2021-06-03T14:51:39Z</time>
      </trkpt>
      <trkpt lat="45.38958" lon="4.37538">
        <ele>753</ele>
        <time>2021-06-03T14:52:23Z</time>
      </trkpt>
      <trkpt lat="45.38994" lon="4.37473">
        <ele>757</ele>
        <time>2021-06-03T14:53:10Z</time>
      </trkpt>
      <trkpt lat="45.39043" lon="4.37398">
        <ele>761</ele>
        <time>2021-06-03T14:54:08Z</time>
      </trkpt>
      <trkpt lat="45.39064" lon="4.37368">
        <ele>764</ele>
        <time>2021-06-03T14:54:31Z</time>
      </trkpt>
      <trkpt lat="45.39065" lon="4.37447">
        <ele>769</ele>
        <time>2021-06-03T14:55:16Z</time>
      </trkpt>
      <trkpt lat="45.39032" lon="4.37555">
        <ele>773</ele>
        <time>2021-06-03T14:56:22Z</time>
      </trkpt>
      <trkpt lat="45.3901" lon="4.37627">
        <ele>778</ele>
        <time>2021-06-03T14:57:06Z</time>
      </trkpt>
      <trkpt lat="45.39008" lon="4.37682">
        <ele>783</ele>
        <time>2021-06-03T14:57:37Z</time>
      </trkpt>
      <trkpt lat="45.39021" lon="4.37749">
        <ele>787</ele>
        <time>2021-06-03T14:58:16Z</time>
      </trkpt>
      <trkpt lat="45.38981" lon="4.37838">
        <ele>791</ele>
        <time>2021-06-03T14:59:16Z</time>
      </trkpt>
      <trkpt lat="45.38969" lon="4.37886">
        <ele>794</ele>
        <time>2021-06-03T14:59:44Z</time>
      </trkpt>
      <trkpt lat="45.38941" lon="4.37899">
        <ele>798</ele>
        <time>2021-06-03T15:00:08Z</time>
      </trkpt>
      <trkpt lat="45.38911" lon="4.37945">
        <ele>807</ele>
        <time>2021-06-03T15:00:43Z</time>
      </trkpt>
      <trkpt lat="45.38893" lon="4.38011">
        <ele>815</ele>
        <time>2021-06-03T15:01:23Z</time>
      </trkpt>
      <trkpt lat="45.38872" lon="4.38062">
        <ele>820</ele>
        <time>2021-06-03T15:01:56Z</time>
      </trkpt>
      <trkpt lat="45.38807" lon="4.38156">
        <ele>835</ele>
        <time>2021-06-03T15:03:11Z</time>
      </trkpt>
      <trkpt lat="45.38756" lon="4.38269">
        <ele>848</ele>
        <time>2021-06-03T15:04:26Z</time>
      </trkpt>
      <trkpt lat="45.38743" lon="4.38387">
        <ele>854</ele>
        <time>2021-06-03T15:05:33Z</time>
      </trkpt>
      <trkpt lat="45.38727" lon="4.38505">
        <ele>858</ele>
        <time>2021-06-03T15:06:41Z</time>
      </trkpt>
      <trkpt lat="45.38711" lon="4.38598">
        <ele>857</ele>
        <time>2021-06-03T15:07:35Z</time>
      </trkpt>
      <trkpt lat="45.38685" lon="4.38689">
        <ele>859</ele>
        <time>2021-06-03T15:08:30Z</time>
      </trkpt>
      <trkpt lat="45.38586" lon="4.38912">
        <ele>870</ele>
        <time>2021-06-03T15:10:58Z</time>
      </trkpt>
      <trkpt lat="45.38494" lon="4.3918">
        <ele>882</ele>
        <time>2021-06-03T15:13:46Z</time>
      </trkpt>
      <trkpt lat="45.38469" lon="4.39248">
        <ele>882</ele>
        <time>2021-06-03T15:14:29Z</time>
      </trkpt>
      <trkpt lat="45.3845" lon="4.39338">
        <ele>885</ele>
        <time>2021-06-03T15:15:22Z</time>
      </trkpt>
      <trkpt lat="45.38414" lon="4.39462">
        <ele>889</ele>
        <time>2021-06-03T15:16:37Z</time>
      </trkpt>
      <trkpt lat="45.38383" lon="4.39611">
        <ele>893</ele>
        <time>2021-06-03T15:18:05Z</time>
      </trkpt>
      <trkpt lat="45.38429" lon="4.3977">
        <ele>899</ele>
        <time>2021-06-03T15:19:42Z</time>
      </trkpt>
      <trkpt lat="45.38442" lon="4.39884">
        <ele>905</ele>
        <time>2021-06-03T15:20:46Z</time>
      </trkpt>
      <trkpt lat="45.38478" lon="4.40183">
        <ele>907</ele>
        <time>2021-06-03T15:23:37Z</time>
      </trkpt>
      <trkpt lat="45.38447" lon="4.40283">
        <ele>903</ele>
        <time>2021-06-03T15:24:39Z</time>
      </trkpt>
      <trkpt lat="45.3838" lon="4.40382">
        <ele>903</ele>
        <time>2021-06-03T15:25:56Z</time>
      </trkpt>
      <trkpt lat="45.38302" lon="4.4046">
        <ele>909</ele>
        <time>2021-06-03T15:27:12Z</time>
      </trkpt>
      <trkpt lat="45.38237" lon="4.40544">
        <ele>916</ele>
        <time>2021-06-03T15:28:22Z</time>
      </trkpt>
      <trkpt lat="45.38207" lon="4.40591">
        <ele>918</ele>
        <time>2021-06-03T15:28:58Z</time>
      </trkpt>
      <trkpt lat="45.38157" lon="4.40704">
        <ele>924</ele>
        <time>2021-06-03T15:30:13Z</time>
      </trkpt>
      <trkpt lat="45.38075" lon="4.40974">
        <ele>944</ele>
        <time>2021-06-03T15:32:59Z</time>
      </trkpt>
      <trkpt lat="45.38021" lon="4.41214">
        <ele>963</ele>
        <time>2021-06-03T15:35:20Z</time>
      </trkpt>
      <trkpt lat="45.38024" lon="4.41258">
        <ele>968</ele>
        <time>2021-06-03T15:35:45Z</time>
      </trkpt>
      <trkpt lat="45.38018" lon="4.41331">
        <ele>978</ele>
        <time>2021-06-03T15:36:27Z</time>
      </trkpt>
      <trkpt lat="45.3797" lon="4.41447">
        <ele>985</ele>
        <time>2021-06-03T15:37:42Z</time>
      </trkpt>
      <trkpt lat="45.38002" lon="4.41507">
        <ele>992</ele>
        <time>2021-06-03T15:38:25Z</time>
      </trkpt>
      <trkpt lat="45.37994" lon="4.41671">
        <ele>994</ele>
        <time>2021-06-03T15:39:57Z</time>
      </trkpt>
      <trkpt lat="45.37983" lon="4.41755">
        <ele>1001</ele>
        <time>2021-06-03T15:40:45Z</time>
      </trkpt>
      <trkpt lat="45.37923" lon="4.41926">
        <ele>1019</ele>
        <time>2021-06-03T15:42:33Z</time>
      </trkpt>
      <trkpt lat="45.37919" lon="4.42037">
        <ele>1031</ele>
        <time>2021-06-03T15:43:35Z</time>
      </trkpt>
      <trkpt lat="45.37932" lon="4.42161">
        <ele>1037</ele>
        <time>2021-06-03T15:44:46Z</time>
      </trkpt>
      <trkpt lat="45.37838" lon="4.42025">
        <ele>1044</ele>
        <time>2021-06-03T15:46:33Z</time>
      </trkpt>
      <trkpt lat="45.37822" lon="4.42053">
        <ele>1050</ele>
        <time>2021-06-03T15:46:53Z</time>
      </trkpt>
      <trkpt lat="45.3779" lon="4.42043">
        <ele>1055</ele>
        <time>2021-06-03T15:47:20Z</time>
      </trkpt>
      <trkpt lat="45.37709" lon="4.41999">
        <ele>1059</ele>
        <time>2021-06-03T15:48:29Z</time>
      </trkpt>
      <trkpt lat="45.37552" lon="4.41888">
        <ele>1053</ele>
        <time>2021-06-03T15:50:49Z</time>
      </trkpt>
      <trkpt lat="45.37514" lon="4.41849">
        <ele>1053</ele>
        <time>2021-06-03T15:51:27Z</time>
      </trkpt>
      <trkpt lat="45.37489" lon="4.41842">
        <ele>1054</ele>
        <time>2021-06-03T15:51:47Z</time>
      </trkpt>
      <trkpt lat="45.37426" lon="4.41926">
        <ele>1058</ele>
        <time>2021-06-03T15:52:56Z</time>
      </trkpt>
      <trkpt lat="45.37399" lon="4.42072">
        <ele>1064</ele>
        <time>2021-06-03T15:54:21Z</time>
      </trkpt>
      <trkpt lat="45.37387" lon="4.42204">
        <ele>1067</ele>
        <time>2021-06-03T15:55:36Z</time>
      </trkpt>
      <trkpt lat="45.37394" lon="4.42487">
        <ele>1067</ele>
        <time>2021-06-03T15:58:15Z</time>
      </trkpt>
      <trkpt lat="45.37372" lon="4.42643">
        <ele>1071</ele>
        <time>2021-06-03T15:59:45Z</time>
      </trkpt>
      <trkpt lat="45.37327" lon="4.42724">
        <ele>1078</ele>
        <time>2021-06-03T16:00:43Z</time>
      </trkpt>
      <trkpt lat="45.37292" lon="4.42763">
        <ele>1080</ele>
        <time>2021-06-03T16:01:19Z</time>
      </trkpt>
      <trkpt lat="45.37207" lon="4.4287">
        <ele>1083</ele>
        <time>2021-06-03T16:02:49Z</time>
      </trkpt>
      <trkpt lat="45.37152" lon="4.43026">
        <ele>1083</ele>
        <time>2021-06-03T16:04:28Z</time>
      </trkpt>
      <trkpt lat="45.37106" lon="4.43143">
        <ele>1078</ele>
        <time>2021-06-03T16:05:43Z</time>
      </trkpt>
      <trkpt lat="45.36967" lon="4.43337">
        <ele>1070</ele>
        <time>2021-06-03T16:08:19Z</time>
      </trkpt>
      <trkpt lat="45.3687" lon="4.43516">
        <ele>1058</ele>
        <time>2021-06-03T16:10:26Z</time>
      </trkpt>
      <trkpt lat="45.36785" lon="4.43653">
        <ele>1052</ele>
        <time>2021-06-03T16:12:09Z</time>
      </trkpt>
      <trkpt lat="45.36766" lon="4.43641">
        <ele>1052</ele>
        <time>2021-06-03T16:12:26Z</time>
      </trkpt>
      <trkpt lat="45.36735" lon="4.43639">
        <ele>1052</ele>
        <time>2021-06-03T16:12:50Z</time>
      </trkpt>
      <trkpt lat="45.36692" lon="4.43613">
        <ele>1054</ele>
        <time>2021-06-03T16:13:28Z</time>
      </trkpt>
      <trkpt lat="45.36618" lon="4.43559">
        <ele>1056</ele>
        <time>2021-06-03T16:14:34Z</time>
      </trkpt>
      <trkpt lat="45.36573" lon="4.4351">
        <ele>1057</ele>
        <time>2021-06-03T16:15:20Z</time>
      </trkpt>
      <trkpt lat="45.36523" lon="4.43447">
        <ele>1060</ele>
        <time>2021-06-03T16:16:13Z</time>
      </trkpt>
      <trkpt lat="45.36483" lon="4.43406">
        <ele>1062</ele>
        <time>2021-06-03T16:16:53Z</time>
      </trkpt>
      <trkpt lat="45.36437" lon="4.4336">
        <ele>1063</ele>
        <time>2021-06-03T16:17:38Z</time>
      </trkpt>
      <trkpt lat="45.36358" lon="4.43324">
        <ele>1062</ele>
        <time>2021-06-03T16:18:44Z</time>
      </trkpt>
      <trkpt lat="45.36275" lon="4.43342">
        <ele>1061</ele>
        <time>2021-06-03T16:19:51Z</time>
      </trkpt>
      <trkpt lat="45.36225" lon="4.43375">
        <ele>1062</ele>
        <time>2021-06-03T16:20:35Z</time>
      </trkpt>
      <trkpt lat="45.36159" lon="4.43408">
        <ele>1062</ele>
        <time>2021-06-03T16:21:31Z</time>
      </trkpt>
      <trkpt lat="45.36136" lon="4.43405">
        <ele>1063</ele>
        <time>2021-06-03T16:21:50Z</time>
      </trkpt>
      <trkpt lat="45.36108" lon="4.43355">
        <ele>1067</ele>
        <time>2021-06-03T16:22:26Z</time>
      </trkpt>
      <trkpt lat="45.36096" lon="4.43276">
        <ele>1071</ele>
        <time>2021-06-03T16:23:11Z</time>
      </trkpt>
      <trkpt lat="45.36094" lon="4.43207">
        <ele>1074</ele>
        <time>2021-06-03T16:23:50Z</time>
      </trkpt>
      <trkpt lat="45.36108" lon="4.43041">
        <ele>1072</ele>
        <time>2021-06-03T16:25:24Z</time>
      </trkpt>
      <trkpt lat="45.36118" lon="4.42923">
        <ele>1068</ele>
        <time>2021-06-03T16:26:31Z</time>
      </trkpt>
      <trkpt lat="45.36099" lon="4.42806">
        <ele>1065</ele>
        <time>2021-06-03T16:27:39Z</time>
      </trkpt>
      <trkpt lat="45.36064" lon="4.42739">
        <ele>1064</ele>
        <time>2021-06-03T16:28:26Z</time>
      </trkpt>
      <trkpt lat="45.36013" lon="4.42719">
        <ele>1065</ele>
        <time>2021-06-03T16:29:08Z</time>
      </trkpt>
      <trkpt lat="45.35857" lon="4.42651">
        <ele>1065</ele>
        <time>2021-06-03T16:31:19Z</time>
      </trkpt>
      <trkpt lat="45.35799" lon="4.42585">
        <ele>1057</ele>
        <time>2021-06-03T16:32:18Z</time>
      </trkpt>
      <trkpt lat="45.35761" lon="4.42497">
        <ele>1053</ele>
        <time>2021-06-03T16:33:16Z</time>
      </trkpt>
      <trkpt lat="45.35689" lon="4.42314">
        <ele>1049</ele>
        <time>2021-06-03T16:35:14Z</time>
      </trkpt>
      <trkpt lat="45.35641" lon="4.42261">
        <ele>1045</ele>
        <time>2021-06-03T16:36:03Z</time>
      </trkpt>
      <trkpt lat="45.35587" lon="4.42247">
        <ele>1046</ele>
        <time>2021-06-03T16:36:47Z</time>
      </trkpt>
      <trkpt lat="45.35429" lon="4.42213">
        <ele>1045</ele>
        <time>2021-06-03T16:38:55Z</time>
      </trkpt>
      <trkpt lat="45.35254" lon="4.42167">
        <ele>1048</ele>
        <time>2021-06-03T16:41:17Z</time>
      </trkpt>
      <trkpt lat="45.35176" lon="4.42">
        <ele>1053</ele>
        <time>2021-06-03T16:43:10Z</time>
      </trkpt>
      <trkpt lat="45.35185" lon="4.41929">
        <ele>1056</ele>
        <time>2021-06-03T16:43:51Z</time>
      </trkpt>
      <trkpt lat="45.35254" lon="4.418">
        <ele>1058</ele>
        <time>2021-06-03T16:45:22Z</time>
      </trkpt>
      <trkpt lat="45.35327" lon="4.41635">
        <ele>1065</ele>
        <time>2021-06-03T16:47:12Z</time>
      </trkpt>
      <trkpt lat="45.35375" lon="4.41403">
        <ele>1058</ele>
        <time>2021-06-03T16:49:28Z</time>
      </trkpt>
      <trkpt lat="45.35402" lon="4.41201">
        <ele>1054</ele>
        <time>2021-06-03T16:51:23Z</time>
      </trkpt>
      <trkpt lat="45.35412" lon="4.41155">
        <ele>1054</ele>
        <time>2021-06-03T16:51:51Z</time>
      </trkpt>
      <trkpt lat="45.35447" lon="4.41107">
        <ele>1052</ele>
        <time>2021-06-03T16:52:29Z</time>
      </trkpt>
      <trkpt lat="45.35477" lon="4.41073">
        <ele>1050</ele>
        <time>2021-06-03T16:53:00Z</time>
      </trkpt>
      <trkpt lat="45.35554" lon="4.41038">
        <ele>1041</ele>
        <time>2021-06-03T16:54:05Z</time>
      </trkpt>
      <trkpt lat="45.35613" lon="4.41014">
        <ele>1033</ele>
        <time>2021-06-03T16:54:54Z</time>
      </trkpt>
      <trkpt lat="45.35644" lon="4.40974">
        <ele>1029</ele>
        <time>2021-06-03T16:55:28Z</time>
      </trkpt>
      <trkpt lat="45.35683" lon="4.40928">
        <ele>1021</ele>
        <time>2021-06-03T16:56:08Z</time>
      </trkpt>
      <trkpt lat="45.35666" lon="4.40818">
        <ele>1026</ele>
        <time>2021-06-03T16:57:11Z</time>
      </trkpt>
      <trkpt lat="45.35667" lon="4.40759">
        <ele>1026</ele>
        <time>2021-06-03T16:57:45Z</time>
      </trkpt>
      <trkpt lat="45.35644" lon="4.40693">
        <ele>1024</ele>
        <time>2021-06-03T16:58:26Z</time>
      </trkpt>
      <trkpt lat="45.35574" lon="4.40612">
        <ele>1021</ele>
        <time>2021-06-03T16:59:38Z</time>
      </trkpt>
      <trkpt lat="45.35515" lon="4.40558">
        <ele>1021</ele>
        <time>2021-06-03T17:00:34Z</time>
      </trkpt>
      <trkpt lat="45.3543" lon="4.40523">
        <ele>1020</ele>
        <time>2021-06-03T17:01:45Z</time>
      </trkpt>
      <trkpt lat="45.35352" lon="4.40479">
        <ele>1014</ele>
        <time>2021-06-03T17:02:53Z</time>
      </trkpt>
      <trkpt lat="45.35334" lon="4.40436">
        <ele>1009</ele>
        <time>2021-06-03T17:03:21Z</time>
      </trkpt>
      <trkpt lat="45.35327" lon="4.40392">
        <ele>1006</ele>
        <time>2021-06-03T17:03:46Z</time>
      </trkpt>
      <trkpt lat="45.35343" lon="4.40295">
        <ele>1000</ele>
        <time>2021-06-03T17:04:42Z</time>
      </trkpt>
      <trkpt lat="45.35353" lon="4.40077">
        <ele>988</ele>
        <time>2021-06-03T17:06:45Z</time>
      </trkpt>
      <trkpt lat="45.35371" lon="4.39989">
        <ele>990</ele>
        <time>2021-06-03T17:07:37Z</time>
      </trkpt>
      <trkpt lat="45.35369" lon="4.39846">
        <ele>986</ele>
        <time>2021-06-03T17:08:57Z</time>
      </trkpt>
      <trkpt lat="45.35371" lon="4.39705">
        <ele>976</ele>
        <time>2021-06-03T17:10:16Z</time>
      </trkpt>
      <trkpt lat="45.35377" lon="4.39682">
        <ele>975</ele>
        <time>2021-06-03T17:10:30Z</time>
      </trkpt>
      <trkpt lat="45.35386" lon="4.39619">
        <ele>972</ele>
        <time>2021-06-03T17:11:06Z</time>
      </trkpt>
      <trkpt lat="45.35349" lon="4.39596">
        <ele>972</ele>
        <time>2021-06-03T17:11:39Z</time>
      </trkpt>
      <trkpt lat="45.35293" lon="4.39581">
        <ele>975</ele>
        <time>2021-06-03T17:12:24Z</time>
      </trkpt>
      <trkpt lat="45.35343" lon="4.3953">
        <ele>971</ele>
        <time>2021-06-03T17:13:14Z</time>
      </trkpt>
      <trkpt lat="45.35353" lon="4.39477">
        <ele>969</ele>
        <time>2021-06-03T17:13:45Z</time>
      </trkpt>
      <trkpt lat="45.35377" lon="4.39438">
        <ele>966</ele>
        <time>2021-06-03T17:14:14Z</time>
      </trkpt>
      <trkpt lat="45.35411" lon="4.39377">
        <ele>967</ele>
        <time>2021-06-03T17:14:57Z</time>
      </trkpt>
      <trkpt lat="45.3551" lon="4.39282">
        <ele>966</ele>
        <time>2021-06-03T17:16:33Z</time>
      </trkpt>
      <trkpt lat="45.35578" lon="4.39188">
        <ele>968</ele>
        <time>2021-06-03T17:17:49Z</time>
      </trkpt>
      <trkpt lat="45.35615" lon="4.3915">
        <ele>968</ele>
        <time>2021-06-03T17:18:26Z</time>
      </trkpt>
      <trkpt lat="45.35714" lon="4.39157">
        <ele>961</ele>
        <time>2021-06-03T17:19:45Z</time>
      </trkpt>
      <trkpt lat="45.35774" lon="4.39142">
        <ele>962</ele>
        <time>2021-06-03T17:20:34Z</time>
      </trkpt>
      <trkpt lat="45.35843" lon="4.39154">
        <ele>965</ele>
        <time>2021-06-03T17:21:29Z</time>
      </trkpt>
      <trkpt lat="45.35923" lon="4.39201">
        <ele>960</ele>
        <time>2021-06-03T17:22:39Z</time>
      </trkpt>
      <trkpt lat="45.35931" lon="4.39208">
        <ele>959</ele>
        <time>2021-06-03T17:22:46Z</time>
      </trkpt>
      <trkpt lat="45.35974" lon="4.39227">
        <ele>953</ele>
        <time>2021-06-03T17:23:22Z</time>
      </trkpt>
      <trkpt lat="45.36017" lon="4.39218">
        <ele>951</ele>
        <time>2021-06-03T17:23:57Z</time>
      </trkpt>
      <trkpt lat="45.36048" lon="4.39131">
        <ele>949</ele>
        <time>2021-06-03T17:24:52Z</time>
      </trkpt>
      <trkpt lat="45.3606" lon="4.39058">
        <ele>944</ele>
        <time>2021-06-03T17:25:34Z</time>
      </trkpt>
      <trkpt lat="45.36041" lon="4.38945">
        <ele>941</ele>
        <time>2021-06-03T17:26:39Z</time>
      </trkpt>
      <trkpt lat="45.36013" lon="4.38889">
        <ele>941</ele>
        <time>2021-06-03T17:27:18Z</time>
      </trkpt>
      <trkpt lat="45.35961" lon="4.38805">
        <ele>937</ele>
        <time>2021-06-03T17:28:21Z</time>
      </trkpt>
      <trkpt lat="45.35938" lon="4.38767">
        <ele>933</ele>
        <time>2021-06-03T17:28:49Z</time>
      </trkpt>
      <trkpt lat="45.36006" lon="4.38654">
        <ele>919</ele>
        <time>2021-06-03T17:30:13Z</time>
      </trkpt>
      <trkpt lat="45.36056" lon="4.38596">
        <ele>913</ele>
        <time>2021-06-03T17:31:05Z</time>
      </trkpt>
      <trkpt lat="45.36121" lon="4.38489">
        <ele>906</ele>
        <time>2021-06-03T17:32:24Z</time>
      </trkpt>
      <trkpt lat="45.36135" lon="4.38403">
        <ele>903</ele>
        <time>2021-06-03T17:33:14Z</time>
      </trkpt>
      <trkpt lat="45.36134" lon="4.3833">
        <ele>898</ele>
        <time>2021-06-03T17:33:55Z</time>
      </trkpt>
      <trkpt lat="45.36136" lon="4.38301">
        <ele>896</ele>
        <time>2021-06-03T17:34:11Z</time>
      </trkpt>
      <trkpt lat="45.36148" lon="4.38254">
        <ele>893</ele>
        <time>2021-06-03T17:34:39Z</time>
      </trkpt>
      <trkpt lat="45.36173" lon="4.3821">
        <ele>894</ele>
        <time>2021-06-03T17:35:11Z</time>
      </trkpt>
      <trkpt lat="45.36209" lon="4.38184">
        <ele>893</ele>
        <time>2021-06-03T17:35:44Z</time>
      </trkpt>
      <trkpt lat="45.36245" lon="4.38172">
        <ele>891</ele>
        <time>2021-06-03T17:36:13Z</time>
      </trkpt>
      <trkpt lat="45.36325" lon="4.38113">
        <ele>887</ele>
        <time>2021-06-03T17:37:25Z</time>
      </trkpt>
      <trkpt lat="45.36361" lon="4.38073">
        <ele>884</ele>
        <time>2021-06-03T17:38:02Z</time>
      </trkpt>
      <trkpt lat="45.36399" lon="4.38016">
        <ele>881</ele>
        <time>2021-06-03T17:38:46Z</time>
      </trkpt>
      <trkpt lat="45.36437" lon="4.37991">
        <ele>879</ele>
        <time>2021-06-03T17:39:20Z</time>
      </trkpt>
      <trkpt lat="45.36488" lon="4.37981">
        <ele>876</ele>
        <time>2021-06-03T17:40:01Z</time>
      </trkpt>
      <trkpt lat="45.36523" lon="4.37948">
        <ele>876</ele>
        <time>2021-06-03T17:40:35Z</time>
      </trkpt>
      <trkpt lat="45.36568" lon="4.37931">
        <ele>874</ele>
        <time>2021-06-03T17:41:12Z</time>
      </trkpt>
      <trkpt lat="45.36623" lon="4.37925">
        <ele>871</ele>
        <time>2021-06-03T17:41:56Z</time>
      </trkpt>
      <trkpt lat="45.36668" lon="4.37901">
        <ele>870</ele>
        <time>2021-06-03T17:42:34Z</time>
      </trkpt>
      <trkpt lat="45.36698" lon="4.37904">
        <ele>868</ele>
        <time>2021-06-03T17:42:59Z</time>
      </trkpt>
      <trkpt lat="45.36742" lon="4.37886">
        <ele>866</ele>
        <time>2021-06-03T17:43:35Z</time>
      </trkpt>
      <trkpt lat="45.36772" lon="4.37858">
        <ele>865</ele>
        <time>2021-06-03T17:44:04Z</time>
      </trkpt>
      <trkpt lat="45.36793" lon="4.37772">
        <ele>868</ele>
        <time>2021-06-03T17:44:55Z</time>
      </trkpt>
      <trkpt lat="45.3679" lon="4.37726">
        <ele>871</ele>
        <time>2021-06-03T17:45:21Z</time>
      </trkpt>
      <trkpt lat="45.36841" lon="4.37681">
        <ele>871</ele>
        <time>2021-06-03T17:46:09Z</time>
      </trkpt>
      <trkpt lat="45.3697" lon="4.3765">
        <ele>875</ele>
        <time>2021-06-03T17:47:54Z</time>
      </trkpt>
      <trkpt lat="45.36983" lon="4.37654">
        <ele>875</ele>
        <time>2021-06-03T17:48:05Z</time>
      </trkpt>
      <trkpt lat="45.37102" lon="4.37603">
        <ele>880</ele>
        <time>2021-06-03T17:49:44Z</time>
      </trkpt>
      <trkpt lat="45.37137" lon="4.37585">
        <ele>882</ele>
        <time>2021-06-03T17:50:14Z</time>
      </trkpt>
      <trkpt lat="45.37186" lon="4.37535">
        <ele>883</ele>
        <time>2021-06-03T17:51:02Z</time>
      </trkpt>
      <trkpt lat="45.3727" lon="4.37414">
        <ele>875</ele>
        <time>2021-06-03T17:52:38Z</time>
      </trkpt>
      <trkpt lat="45.37317" lon="4.37361">
        <ele>871</ele>
        <time>2021-06-03T17:53:26Z</time>
      </trkpt>
      <trkpt lat="45.37332" lon="4.37355">
        <ele>870</ele>
        <time>2021-06-03T17:53:38Z</time>
      </trkpt>
      <trkpt lat="45.37371" lon="4.37307">
        <ele>869</ele>
        <time>2021-06-03T17:54:20Z</time>
      </trkpt>
      <trkpt lat="45.37388" lon="4.37282">
        <ele>870</ele>
        <time>2021-06-03T17:54:39Z</time>
      </trkpt>
      <trkpt lat="45.37406" lon="4.37246">
        <ele>872</ele>
        <time>2021-06-03T17:55:04Z</time>
      </trkpt>
      <trkpt lat="45.37449" lon="4.37282">
        <ele>870</ele>
        <time>2021-06-03T17:55:44Z</time>
      </trkpt>
      <trkpt lat="45.37489" lon="4.37299">
        <ele>869</ele>
        <time>2021-06-03T17:56:17Z</time>
      </trkpt>
      <trkpt lat="45.37605" lon="4.37312">
        <ele>858</ele>
        <time>2021-06-03T17:57:51Z</time>
      </trkpt>
      <trkpt lat="45.37672" lon="4.37302">
        <ele>854</ele>
        <time>2021-06-03T17:58:44Z</time>
      </trkpt>
      <trkpt lat="45.37779" lon="4.3722">
        <ele>859</ele>
        <time>2021-06-03T18:00:22Z</time>
      </trkpt>
      <trkpt lat="45.37868" lon="4.37154">
        <ele>865</ele>
        <time>2021-06-03T18:01:42Z</time>
      </trkpt>
      <trkpt lat="45.37906" lon="4.37098">
        <ele>868</ele>
        <time>2021-06-03T18:02:26Z</time>
      </trkpt>
      <trkpt lat="45.37942" lon="4.37071">
        <ele>863</ele>
        <time>2021-06-03T18:02:58Z</time>
      </trkpt>
      <trkpt lat="45.37969" lon="4.36978">
        <ele>857</ele>
        <time>2021-06-03T18:03:55Z</time>
      </trkpt>
      <trkpt lat="45.38017" lon="4.36855">
        <ele>852</ele>
        <time>2021-06-03T18:05:14Z</time>
      </trkpt>
      <trkpt lat="45.38064" lon="4.36884">
        <ele>852</ele>
        <time>2021-06-03T18:05:55Z</time>
      </trkpt>
      <trkpt lat="45.38149" lon="4.36807">
        <ele>846</ele>
        <time>2021-06-03T18:07:16Z</time>
      </trkpt>
    </trkseg>
  </trk>
</gpx>